sensor_id;sensor_type;location;lat;lon;timestamp;temperature;humidity
41953;DHT22;63613;28.200;112.870;2022-12-07T00:01:27;10.60;74.30
41953;DHT22;63613;28.200;112.870;2022-12-07T00:03:57;10.60;74.20
41953;DHT22;63613;28.200;112.870;2022-12-07T00:06:42;10.60;74.20
41953;DHT22;63613;28.200;112.870;2022-12-07T00:09:17;10.60;74.30
41953;DHT22;63613;28.200;112.870;2022-12-07T00:11:44;10.70;74.20
41953;DHT22;63613;28.200;112.870;2022-12-07T00:14:15;10.70;74.10
41953;DHT22;63613;28.200;112.870;2022-12-07T00:17:03;10.70;74.00
41953;DHT22;63613;28.200;112.870;2022-12-07T00:19:30;10.70;73.90
41953;DHT22;63613;28.200;112.870;2022-12-07T00:21:57;10.70;74.00
41953;DHT22;63613;28.200;112.870;2022-12-07T00:24:24;10.80;73.90
41953;DHT22;63613;28.200;112.870;2022-12-07T00:26:51;10.80;73.70
41953;DHT22;63613;28.200;112.870;2022-12-07T00:29:20;10.70;73.50
41953;DHT22;63613;28.200;112.870;2022-12-07T00:31:48;10.70;73.30
41953;DHT22;63613;28.200;112.870;2022-12-07T00:34:19;10.80;73.00
41953;DHT22;63613;28.200;112.870;2022-12-07T00:36:46;10.80;73.00
41953;DHT22;63613;28.200;112.870;2022-12-07T00:39:14;10.80;73.00
41953;DHT22;63613;28.200;112.870;2022-12-07T00:41:41;10.70;73.10
41953;DHT22;63613;28.200;112.870;2022-12-07T00:44:08;10.80;73.10
41953;DHT22;63613;28.200;112.870;2022-12-07T00:46:35;10.80;73.20
41953;DHT22;63613;28.200;112.870;2022-12-07T00:49:02;10.80;73.30
41953;DHT22;63613;28.200;112.870;2022-12-07T00:51:29;10.80;73.50
41953;DHT22;63613;28.200;112.870;2022-12-07T00:53:56;10.80;73.70
41953;DHT22;63613;28.200;112.870;2022-12-07T00:56:43;10.80;73.80
41953;DHT22;63613;28.200;112.870;2022-12-07T00:59:13;10.80;73.90
41953;DHT22;63613;28.200;112.870;2022-12-07T01:01:41;10.80;74.10
41953;DHT22;63613;28.200;112.870;2022-12-07T01:04:08;10.80;74.20
41953;DHT22;63613;28.200;112.870;2022-12-07T01:06:35;10.90;74.10
41953;DHT22;63613;28.200;112.870;2022-12-07T01:09:03;10.90;74.00
41953;DHT22;63613;28.200;112.870;2022-12-07T01:11:32;10.90;73.90
41953;DHT22;63613;28.200;112.870;2022-12-07T01:14:00;10.90;73.90
41953;DHT22;63613;28.200;112.870;2022-12-07T01:16:29;10.90;73.80
41953;DHT22;63613;28.200;112.870;2022-12-07T01:18:57;10.90;74.00
41953;DHT22;63613;28.200;112.870;2022-12-07T01:21:33;10.90;74.00
41953;DHT22;63613;28.200;112.870;2022-12-07T01:24:06;10.90;73.90
41953;DHT22;63613;28.200;112.870;2022-12-07T01:26:33;10.90;74.00
41953;DHT22;63613;28.200;112.870;2022-12-07T01:29:00;10.90;73.90
41953;DHT22;63613;28.200;112.870;2022-12-07T01:31:28;10.90;74.00
41953;DHT22;63613;28.200;112.870;2022-12-07T01:33:57;10.90;73.90
41953;DHT22;63613;28.200;112.870;2022-12-07T01:36:27;10.90;74.00
41953;DHT22;63613;28.200;112.870;2022-12-07T01:38:56;10.90;74.10
41953;DHT22;63613;28.200;112.870;2022-12-07T01:41:27;10.90;74.10
41953;DHT22;63613;28.200;112.870;2022-12-07T01:44:11;11.00;74.00
41953;DHT22;63613;28.200;112.870;2022-12-07T01:46:38;11.00;73.90
41953;DHT22;63613;28.200;112.870;2022-12-07T01:49:08;11.00;73.90
41953;DHT22;63613;28.200;112.870;2022-12-07T01:51:37;11.00;74.00
41953;DHT22;63613;28.200;112.870;2022-12-07T01:54:05;11.00;74.10
41953;DHT22;63613;28.200;112.870;2022-12-07T01:56:36;11.00;74.20
41953;DHT22;63613;28.200;112.870;2022-12-07T01:59:04;11.00;74.20
41953;DHT22;63613;28.200;112.870;2022-12-07T02:01:32;11.00;74.30
41953;DHT22;63613;28.200;112.870;2022-12-07T02:03:59;11.00;74.20
41953;DHT22;63613;28.200;112.870;2022-12-07T02:06:26;11.10;74.30
41953;DHT22;63613;28.200;112.870;2022-12-07T02:08:54;11.10;74.40
41953;DHT22;63613;28.200;112.870;2022-12-07T02:11:22;11.10;74.40
41953;DHT22;63613;28.200;112.870;2022-12-07T02:13:49;11.20;74.40
41953;DHT22;63613;28.200;112.870;2022-12-07T02:21:45;11.20;74.40
41953;DHT22;63613;28.200;112.870;2022-12-07T02:40:57;11.30;74.30
41953;DHT22;63613;28.200;112.870;2022-12-07T02:43:57;11.30;74.30
41953;DHT22;63613;28.200;112.870;2022-12-07T02:46:59;11.30;74.40
41953;DHT22;63613;28.200;112.870;2022-12-07T02:49:29;11.30;74.40
41953;DHT22;63613;28.200;112.870;2022-12-07T02:51:57;11.40;74.40
41953;DHT22;63613;28.200;112.870;2022-12-07T02:54:24;11.40;74.40
41953;DHT22;63613;28.200;112.870;2022-12-07T02:57:14;11.40;74.50
41953;DHT22;63613;28.200;112.870;2022-12-07T03:03:09;11.40;74.70
41953;DHT22;63613;28.200;112.870;2022-12-07T03:06:06;11.40;74.80
41953;DHT22;63613;28.200;112.870;2022-12-07T03:11:48;11.40;74.70
41953;DHT22;63613;28.200;112.870;2022-12-07T03:14:39;11.40;74.70
41953;DHT22;63613;28.200;112.870;2022-12-07T03:17:18;11.40;74.90
41953;DHT22;63613;28.200;112.870;2022-12-07T03:20:08;11.40;75.00
41953;DHT22;63613;28.200;112.870;2022-12-07T03:22:37;11.40;75.20
41953;DHT22;63613;28.200;112.870;2022-12-07T03:25:09;11.40;75.20
41953;DHT22;63613;28.200;112.870;2022-12-07T03:27:44;11.40;75.40
41953;DHT22;63613;28.200;112.870;2022-12-07T03:30:15;11.50;75.50
41953;DHT22;63613;28.200;112.870;2022-12-07T03:33:19;11.50;75.40
41953;DHT22;63613;28.200;112.870;2022-12-07T03:36:21;11.50;75.50
41953;DHT22;63613;28.200;112.870;2022-12-07T03:38:55;11.50;75.70
41953;DHT22;63613;28.200;112.870;2022-12-07T03:41:27;11.50;75.70
41953;DHT22;63613;28.200;112.870;2022-12-07T03:43:55;11.50;75.90
41953;DHT22;63613;28.200;112.870;2022-12-07T03:49:25;11.60;76.10
41953;DHT22;63613;28.200;112.870;2022-12-07T03:55:00;11.50;76.20
41953;DHT22;63613;28.200;112.870;2022-12-07T03:57:31;11.60;76.40
41953;DHT22;63613;28.200;112.870;2022-12-07T04:00:00;11.60;76.40
41953;DHT22;63613;28.200;112.870;2022-12-07T04:02:28;11.60;76.60
41953;DHT22;63613;28.200;112.870;2022-12-07T04:04:56;11.60;76.70
41953;DHT22;63613;28.200;112.870;2022-12-07T04:07:23;11.70;76.80
41953;DHT22;63613;28.200;112.870;2022-12-07T04:09:50;11.60;76.80
41953;DHT22;63613;28.200;112.870;2022-12-07T04:12:18;11.70;77.00
41953;DHT22;63613;28.200;112.870;2022-12-07T04:14:45;11.70;77.00
41953;DHT22;63613;28.200;112.870;2022-12-07T04:17:12;11.70;76.90
41953;DHT22;63613;28.200;112.870;2022-12-07T04:19:39;11.70;77.00
41953;DHT22;63613;28.200;112.870;2022-12-07T04:22:07;11.80;77.20
41953;DHT22;63613;28.200;112.870;2022-12-07T04:24:54;11.80;77.20
41953;DHT22;63613;28.200;112.870;2022-12-07T04:27:21;11.70;77.50
41953;DHT22;63613;28.200;112.870;2022-12-07T04:29:48;11.80;77.90
41953;DHT22;63613;28.200;112.870;2022-12-07T04:32:15;11.80;77.80
41953;DHT22;63613;28.200;112.870;2022-12-07T04:34:42;11.80;78.20
41953;DHT22;63613;28.200;112.870;2022-12-07T04:37:09;11.80;78.30
41953;DHT22;63613;28.200;112.870;2022-12-07T04:39:37;11.80;78.30
41953;DHT22;63613;28.200;112.870;2022-12-07T04:42:05;11.80;78.30
41953;DHT22;63613;28.200;112.870;2022-12-07T04:44:32;11.80;78.20
41953;DHT22;63613;28.200;112.870;2022-12-07T04:46:59;11.80;78.30
41953;DHT22;63613;28.200;112.870;2022-12-07T04:49:27;11.90;78.30
41953;DHT22;63613;28.200;112.870;2022-12-07T04:52:14;11.90;78.40
41953;DHT22;63613;28.200;112.870;2022-12-07T04:54:41;11.90;78.50
41953;DHT22;63613;28.200;112.870;2022-12-07T04:57:08;11.80;78.60
41953;DHT22;63613;28.200;112.870;2022-12-07T04:59:35;11.90;78.60
41953;DHT22;63613;28.200;112.870;2022-12-07T05:02:02;11.90;78.80
41953;DHT22;63613;28.200;112.870;2022-12-07T05:04:29;11.90;78.80
41953;DHT22;63613;28.200;112.870;2022-12-07T05:06:56;11.90;79.00
41953;DHT22;63613;28.200;112.870;2022-12-07T05:09:25;11.90;79.30
41953;DHT22;63613;28.200;112.870;2022-12-07T05:11:53;11.90;80.40
41953;DHT22;63613;28.200;112.870;2022-12-07T05:14:24;11.90;78.90
41953;DHT22;63613;28.200;112.870;2022-12-07T05:16:52;11.90;77.10
41953;DHT22;63613;28.200;112.870;2022-12-07T05:19:20;11.90;75.90
41953;DHT22;63613;28.200;112.870;2022-12-07T05:21:47;11.90;75.00
41953;DHT22;63613;28.200;112.870;2022-12-07T05:24:16;11.90;75.20
41953;DHT22;63613;28.200;112.870;2022-12-07T05:27:03;11.90;75.60
41953;DHT22;63613;28.200;112.870;2022-12-07T05:29:30;11.90;75.50
41953;DHT22;63613;28.200;112.870;2022-12-07T05:31:57;11.90;75.30
41953;DHT22;63613;28.200;112.870;2022-12-07T05:34:24;11.90;75.40
41953;DHT22;63613;28.200;112.870;2022-12-07T05:36:51;11.90;75.70
41953;DHT22;63613;28.200;112.870;2022-12-07T05:39:18;11.90;76.00
41953;DHT22;63613;28.200;112.870;2022-12-07T05:41:45;11.90;76.10
41953;DHT22;63613;28.200;112.870;2022-12-07T05:44:32;11.90;76.30
41953;DHT22;63613;28.200;112.870;2022-12-07T05:46:59;11.90;76.60
41953;DHT22;63613;28.200;112.870;2022-12-07T05:49:28;11.90;76.80
41953;DHT22;63613;28.200;112.870;2022-12-07T05:51:55;11.90;77.00
41953;DHT22;63613;28.200;112.870;2022-12-07T05:54:22;11.90;77.40
41953;DHT22;63613;28.200;112.870;2022-12-07T05:56:49;11.90;77.50
41953;DHT22;63613;28.200;112.870;2022-12-07T05:59:18;11.90;77.70
41953;DHT22;63613;28.200;112.870;2022-12-07T06:01:54;11.90;77.80
41953;DHT22;63613;28.200;112.870;2022-12-07T06:04:22;11.90;77.90
41953;DHT22;63613;28.200;112.870;2022-12-07T06:06:50;11.90;78.00
41953;DHT22;63613;28.200;112.870;2022-12-07T06:09:21;11.90;78.10
41953;DHT22;63613;28.200;112.870;2022-12-07T06:11:48;11.90;78.10
41953;DHT22;63613;28.200;112.870;2022-12-07T06:14:33;11.90;78.20
41953;DHT22;63613;28.200;112.870;2022-12-07T06:17:00;11.90;77.90
41953;DHT22;63613;28.200;112.870;2022-12-07T06:19:29;12.00;77.90
41953;DHT22;63613;28.200;112.870;2022-12-07T06:21:56;11.90;77.90
41953;DHT22;63613;28.200;112.870;2022-12-07T06:24:43;11.90;77.90
41953;DHT22;63613;28.200;112.870;2022-12-07T06:27:10;11.90;77.90
41953;DHT22;63613;28.200;112.870;2022-12-07T06:29:58;11.90;77.90
41953;DHT22;63613;28.200;112.870;2022-12-07T06:32:25;11.90;77.90
41953;DHT22;63613;28.200;112.870;2022-12-07T06:34:52;11.90;77.90
41953;DHT22;63613;28.200;112.870;2022-12-07T06:37:19;11.90;77.90
41953;DHT22;63613;28.200;112.870;2022-12-07T06:39:46;11.90;77.80
41953;DHT22;63613;28.200;112.870;2022-12-07T06:42:13;11.90;77.70
41953;DHT22;63613;28.200;112.870;2022-12-07T06:44:40;11.90;77.60
41953;DHT22;63613;28.200;112.870;2022-12-07T06:47:08;11.90;77.60
41953;DHT22;63613;28.200;112.870;2022-12-07T06:49:35;11.90;77.70
41953;DHT22;63613;28.200;112.870;2022-12-07T06:52:03;11.90;77.60
41953;DHT22;63613;28.200;112.870;2022-12-07T06:54:32;11.90;77.70
41953;DHT22;63613;28.200;112.870;2022-12-07T06:56:59;11.90;77.60
41953;DHT22;63613;28.200;112.870;2022-12-07T06:59:27;11.90;77.60
41953;DHT22;63613;28.200;112.870;2022-12-07T07:02:14;11.90;77.50
41953;DHT22;63613;28.200;112.870;2022-12-07T07:04:41;11.90;77.20
41953;DHT22;63613;28.200;112.870;2022-12-07T07:07:08;11.90;77.00
41953;DHT22;63613;28.200;112.870;2022-12-07T07:09:35;11.90;76.80
41953;DHT22;63613;28.200;112.870;2022-12-07T07:12:02;11.90;76.80
41953;DHT22;63613;28.200;112.870;2022-12-07T07:14:29;11.90;76.70
41953;DHT22;63613;28.200;112.870;2022-12-07T07:16:56;11.90;76.70
41953;DHT22;63613;28.200;112.870;2022-12-07T07:19:43;11.90;76.60
41953;DHT22;63613;28.200;112.870;2022-12-07T07:22:10;11.90;76.40
41953;DHT22;63613;28.200;112.870;2022-12-07T07:24:37;11.90;76.40
41953;DHT22;63613;28.200;112.870;2022-12-07T07:27:04;11.90;76.30
41953;DHT22;63613;28.200;112.870;2022-12-07T07:29:31;11.90;76.00
41953;DHT22;63613;28.200;112.870;2022-12-07T07:32:00;11.90;75.90
41953;DHT22;63613;28.200;112.870;2022-12-07T07:34:27;11.90;75.80
41953;DHT22;63613;28.200;112.870;2022-12-07T07:36:54;11.90;75.80
41953;DHT22;63613;28.200;112.870;2022-12-07T07:39:23;11.90;75.80
41953;DHT22;63613;28.200;112.870;2022-12-07T07:41:50;11.90;75.80
41953;DHT22;63613;28.200;112.870;2022-12-07T07:44:17;11.90;75.80
41953;DHT22;63613;28.200;112.870;2022-12-07T07:46:44;11.90;75.80
41953;DHT22;63613;28.200;112.870;2022-12-07T07:49:11;11.90;75.80
41953;DHT22;63613;28.200;112.870;2022-12-07T07:51:38;11.90;75.70
41953;DHT22;63613;28.200;112.870;2022-12-07T07:54:05;11.90;75.70
41953;DHT22;63613;28.200;112.870;2022-12-07T07:56:34;11.90;75.60
41953;DHT22;63613;28.200;112.870;2022-12-07T07:59:01;11.90;75.70
41953;DHT22;63613;28.200;112.870;2022-12-07T08:01:28;11.90;75.70
41953;DHT22;63613;28.200;112.870;2022-12-07T08:03:55;11.80;75.70
41953;DHT22;63613;28.200;112.870;2022-12-07T08:06:22;11.80;75.70
41953;DHT22;63613;28.200;112.870;2022-12-07T08:08:49;11.90;75.70
41953;DHT22;63613;28.200;112.870;2022-12-07T08:11:20;11.80;75.70
41953;DHT22;63613;28.200;112.870;2022-12-07T08:13:47;11.90;75.70
41953;DHT22;63613;28.200;112.870;2022-12-07T08:16:34;11.90;75.70
41953;DHT22;63613;28.200;112.870;2022-12-07T08:19:01;11.80;75.60
41953;DHT22;63613;28.200;112.870;2022-12-07T08:21:28;11.80;75.70
41953;DHT22;63613;28.200;112.870;2022-12-07T08:23:57;11.80;75.60
41953;DHT22;63613;28.200;112.870;2022-12-07T08:26:25;11.90;75.60
41953;DHT22;63613;28.200;112.870;2022-12-07T08:28:53;11.80;75.60
41953;DHT22;63613;28.200;112.870;2022-12-07T08:31:20;11.80;75.60
41953;DHT22;63613;28.200;112.870;2022-12-07T08:33:50;11.80;75.60
41953;DHT22;63613;28.200;112.870;2022-12-07T08:36:17;11.80;75.50
41953;DHT22;63613;28.200;112.870;2022-12-07T08:38:46;11.80;75.40
41953;DHT22;63613;28.200;112.870;2022-12-07T08:41:33;11.80;75.40
41953;DHT22;63613;28.200;112.870;2022-12-07T08:44:00;11.80;75.50
41953;DHT22;63613;28.200;112.870;2022-12-07T08:46:38;11.80;75.50
41953;DHT22;63613;28.200;112.870;2022-12-07T08:49:18;11.80;75.60
41953;DHT22;63613;28.200;112.870;2022-12-07T08:51:46;11.80;75.70
41953;DHT22;63613;28.200;112.870;2022-12-07T08:54:35;11.70;75.70
41953;DHT22;63613;28.200;112.870;2022-12-07T08:57:04;11.70;75.90
41953;DHT22;63613;28.200;112.870;2022-12-07T08:59:33;11.70;76.00
41953;DHT22;63613;28.200;112.870;2022-12-07T09:02:05;11.70;76.20
41953;DHT22;63613;28.200;112.870;2022-12-07T09:04:35;11.80;76.10
41953;DHT22;63613;28.200;112.870;2022-12-07T09:07:05;11.80;76.00
41953;DHT22;63613;28.200;112.870;2022-12-07T09:09:39;11.80;75.90
41953;DHT22;63613;28.200;112.870;2022-12-07T09:12:07;11.80;75.80
41953;DHT22;63613;28.200;112.870;2022-12-07T09:14:37;11.80;75.70
41953;DHT22;63613;28.200;112.870;2022-12-07T09:17:07;11.80;75.70
41953;DHT22;63613;28.200;112.870;2022-12-07T09:19:34;11.80;75.80
41953;DHT22;63613;28.200;112.870;2022-12-07T09:22:07;11.80;75.80
41953;DHT22;63613;28.200;112.870;2022-12-07T09:24:35;11.80;75.70
41953;DHT22;63613;28.200;112.870;2022-12-07T09:27:02;11.70;75.70
41953;DHT22;63613;28.200;112.870;2022-12-07T09:29:29;11.80;75.90
41953;DHT22;63613;28.200;112.870;2022-12-07T09:31:56;11.70;75.90
41953;DHT22;63613;28.200;112.870;2022-12-07T09:34:24;11.70;75.90
41953;DHT22;63613;28.200;112.870;2022-12-07T09:36:52;11.70;75.90
41953;DHT22;63613;28.200;112.870;2022-12-07T09:39:19;11.80;75.80
41953;DHT22;63613;28.200;112.870;2022-12-07T09:41:46;11.70;75.90
41953;DHT22;63613;28.200;112.870;2022-12-07T09:44:21;11.70;75.90
41953;DHT22;63613;28.200;112.870;2022-12-07T09:46:49;11.70;75.90
41953;DHT22;63613;28.200;112.870;2022-12-07T09:49:21;11.70;76.00
41953;DHT22;63613;28.200;112.870;2022-12-07T09:52:02;11.70;76.10
41953;DHT22;63613;28.200;112.870;2022-12-07T09:54:30;11.70;76.10
41953;DHT22;63613;28.200;112.870;2022-12-07T09:56:58;11.70;76.10
41953;DHT22;63613;28.200;112.870;2022-12-07T09:59:25;11.70;76.00
41953;DHT22;63613;28.200;112.870;2022-12-07T10:01:53;11.70;76.10
41953;DHT22;63613;28.200;112.870;2022-12-07T10:04:21;11.60;76.10
41953;DHT22;63613;28.200;112.870;2022-12-07T10:06:49;11.70;76.10
41953;DHT22;63613;28.200;112.870;2022-12-07T10:09:19;11.60;76.20
41953;DHT22;63613;28.200;112.870;2022-12-07T10:12:05;11.60;76.20
41953;DHT22;63613;28.200;112.870;2022-12-07T10:14:36;11.70;76.10
41953;DHT22;63613;28.200;112.870;2022-12-07T10:23:05;11.60;76.00
41953;DHT22;63613;28.200;112.870;2022-12-07T10:25:38;11.60;76.00
41953;DHT22;63613;28.200;112.870;2022-12-07T10:30:59;11.60;75.90
41953;DHT22;63613;28.200;112.870;2022-12-07T10:33:37;11.60;75.90
41953;DHT22;63613;28.200;112.870;2022-12-07T10:36:35;11.60;75.80
41953;DHT22;63613;28.200;112.870;2022-12-07T10:39:21;11.60;75.80
41953;DHT22;63613;28.200;112.870;2022-12-07T10:42:00;11.60;75.70
41953;DHT22;63613;28.200;112.870;2022-12-07T10:44:30;11.60;75.70
41953;DHT22;63613;28.200;112.870;2022-12-07T10:47:05;11.60;75.50
41953;DHT22;63613;28.200;112.870;2022-12-07T10:55:40;11.60;75.30
41953;DHT22;63613;28.200;112.870;2022-12-07T11:01:23;11.60;75.30
41953;DHT22;63613;28.200;112.870;2022-12-07T11:15:17;11.60;75.10
41953;DHT22;63613;28.200;112.870;2022-12-07T11:26:09;11.50;75.30
41953;DHT22;63613;28.200;112.870;2022-12-07T11:34:34;11.50;75.40
41953;DHT22;63613;28.200;112.870;2022-12-07T11:37:34;11.50;75.40
41953;DHT22;63613;28.200;112.870;2022-12-07T11:40:24;11.50;75.30
41953;DHT22;63613;28.200;112.870;2022-12-07T11:42:58;11.50;75.30
41953;DHT22;63613;28.200;112.870;2022-12-07T11:45:31;11.50;75.20
41953;DHT22;63613;28.200;112.870;2022-12-07T11:48:03;11.50;75.20
41953;DHT22;63613;28.200;112.870;2022-12-07T11:50:36;11.50;75.10
41953;DHT22;63613;28.200;112.870;2022-12-07T11:56:01;11.50;75.20
41953;DHT22;63613;28.200;112.870;2022-12-07T12:04:42;11.50;75.20
41953;DHT22;63613;28.200;112.870;2022-12-07T12:06:43;11.50;75.20
41953;DHT22;63613;28.200;112.870;2022-12-07T12:09:49;11.40;75.10
41953;DHT22;63613;28.200;112.870;2022-12-07T12:12:31;11.40;75.10
41953;DHT22;63613;28.200;112.870;2022-12-07T12:18:21;11.40;75.30
41953;DHT22;63613;28.200;112.870;2022-12-07T12:21:00;11.50;75.30
41953;DHT22;63613;28.200;112.870;2022-12-07T12:23:42;11.40;75.30
41953;DHT22;63613;28.200;112.870;2022-12-07T12:26:21;11.40;75.30
41953;DHT22;63613;28.200;112.870;2022-12-07T12:28:53;11.40;75.40
41953;DHT22;63613;28.200;112.870;2022-12-07T12:33:54;11.40;75.30
41953;DHT22;63613;28.200;112.870;2022-12-07T12:39:15;11.40;75.50
41953;DHT22;63613;28.200;112.870;2022-12-07T12:46:56;11.40;75.50
41953;DHT22;63613;28.200;112.870;2022-12-07T12:54:38;11.40;75.50
41953;DHT22;63613;28.200;112.870;2022-12-07T13:02:59;11.50;75.70
41953;DHT22;63613;28.200;112.870;2022-12-07T13:05:30;11.40;75.60
41953;DHT22;63613;28.200;112.870;2022-12-07T13:08:18;11.40;75.50
41953;DHT22;63613;28.200;112.870;2022-12-07T13:10:48;11.50;75.50
41953;DHT22;63613;28.200;112.870;2022-12-07T13:15:53;11.40;75.50
41953;DHT22;63613;28.200;112.870;2022-12-07T13:29:15;11.50;75.60
41953;DHT22;63613;28.200;112.870;2022-12-07T13:31:51;11.40;75.70
41953;DHT22;63613;28.200;112.870;2022-12-07T13:34:37;11.40;75.70
41953;DHT22;63613;28.200;112.870;2022-12-07T13:39:51;11.50;75.70
41953;DHT22;63613;28.200;112.870;2022-12-07T13:42:29;11.50;75.80
41953;DHT22;63613;28.200;112.870;2022-12-07T13:44:58;11.50;75.70
41953;DHT22;63613;28.200;112.870;2022-12-07T13:47:43;11.40;75.80
41953;DHT22;63613;28.200;112.870;2022-12-07T13:50:24;11.50;75.90
41953;DHT22;63613;28.200;112.870;2022-12-07T13:52:54;11.40;75.90
41953;DHT22;63613;28.200;112.870;2022-12-07T13:55:21;11.50;75.90
41953;DHT22;63613;28.200;112.870;2022-12-07T13:57:51;11.50;75.80
41953;DHT22;63613;28.200;112.870;2022-12-07T14:00:25;11.50;75.80
41953;DHT22;63613;28.200;112.870;2022-12-07T14:03:21;11.50;75.80
41953;DHT22;63613;28.200;112.870;2022-12-07T14:06:05;11.50;75.80
41953;DHT22;63613;28.200;112.870;2022-12-07T14:08:33;11.50;75.70
41953;DHT22;63613;28.200;112.870;2022-12-07T14:11:00;11.50;75.80
41953;DHT22;63613;28.200;112.870;2022-12-07T14:13:36;11.50;75.90
41953;DHT22;63613;28.200;112.870;2022-12-07T14:16:35;11.50;75.90
41953;DHT22;63613;28.200;112.870;2022-12-07T14:19:06;11.50;75.90
41953;DHT22;63613;28.200;112.870;2022-12-07T14:25:33;11.50;75.90
41953;DHT22;63613;28.200;112.870;2022-12-07T14:28:01;11.50;76.00
41953;DHT22;63613;28.200;112.870;2022-12-07T14:30:48;11.50;76.00
41953;DHT22;63613;28.200;112.870;2022-12-07T14:33:22;11.50;76.10
41953;DHT22;63613;28.200;112.870;2022-12-07T14:35:51;11.50;76.20
41953;DHT22;63613;28.200;112.870;2022-12-07T14:38:27;11.50;76.20
41953;DHT22;63613;28.200;112.870;2022-12-07T14:40:55;11.50;76.20
41953;DHT22;63613;28.200;112.870;2022-12-07T14:43:42;11.50;76.30
41953;DHT22;63613;28.200;112.870;2022-12-07T14:46:11;11.50;76.30
41953;DHT22;63613;28.200;112.870;2022-12-07T14:48:40;11.50;76.30
41953;DHT22;63613;28.200;112.870;2022-12-07T14:51:12;11.50;76.30
41953;DHT22;63613;28.200;112.870;2022-12-07T14:53:43;11.50;76.20
41953;DHT22;63613;28.200;112.870;2022-12-07T14:56:11;11.50;75.90
41953;DHT22;63613;28.200;112.870;2022-12-07T14:58:58;11.50;75.70
41953;DHT22;63613;28.200;112.870;2022-12-07T15:01:26;11.50;75.60
41953;DHT22;63613;28.200;112.870;2022-12-07T15:04:13;11.50;75.50
41953;DHT22;63613;28.200;112.870;2022-12-07T15:06:41;11.50;75.60
41953;DHT22;63613;28.200;112.870;2022-12-07T15:09:14;11.50;75.70
41953;DHT22;63613;28.200;112.870;2022-12-07T15:11:41;11.50;75.70
41953;DHT22;63613;28.200;112.870;2022-12-07T15:14:10;11.50;75.60
41953;DHT22;63613;28.200;112.870;2022-12-07T15:16:51;11.50;75.70
41953;DHT22;63613;28.200;112.870;2022-12-07T15:19:21;11.50;75.80
41953;DHT22;63613;28.200;112.870;2022-12-07T15:21:54;11.50;75.90
41953;DHT22;63613;28.200;112.870;2022-12-07T15:24:21;11.50;76.00
41953;DHT22;63613;28.200;112.870;2022-12-07T15:26:50;11.50;76.00
41953;DHT22;63613;28.200;112.870;2022-12-07T15:29:17;11.50;76.10
41953;DHT22;63613;28.200;112.870;2022-12-07T15:31:45;11.50;76.10
41953;DHT22;63613;28.200;112.870;2022-12-07T15:34:12;11.50;76.20
41953;DHT22;63613;28.200;112.870;2022-12-07T15:36:39;11.50;76.20
41953;DHT22;63613;28.200;112.870;2022-12-07T15:39:07;11.50;76.20
41953;DHT22;63613;28.200;112.870;2022-12-07T15:41:35;11.50;76.30
41953;DHT22;63613;28.200;112.870;2022-12-07T15:44:04;11.50;76.30
41953;DHT22;63613;28.200;112.870;2022-12-07T15:46:49;11.50;76.40
41953;DHT22;63613;28.200;112.870;2022-12-07T15:49:18;11.50;76.50
41953;DHT22;63613;28.200;112.870;2022-12-07T15:51:45;11.50;76.70
41953;DHT22;63613;28.200;112.870;2022-12-07T15:54:25;11.50;76.70
41953;DHT22;63613;28.200;112.870;2022-12-07T15:56:52;11.50;76.80
41953;DHT22;63613;28.200;112.870;2022-12-07T15:59:20;11.50;76.90
41953;DHT22;63613;28.200;112.870;2022-12-07T16:01:47;11.50;77.00
41953;DHT22;63613;28.200;112.870;2022-12-07T16:04:34;11.50;77.00
41953;DHT22;63613;28.200;112.870;2022-12-07T16:07:01;11.50;77.00
41953;DHT22;63613;28.200;112.870;2022-12-07T16:09:28;11.50;77.20
41953;DHT22;63613;28.200;112.870;2022-12-07T16:11:55;11.50;77.30
41953;DHT22;63613;28.200;112.870;2022-12-07T16:14:23;11.50;77.20
41953;DHT22;63613;28.200;112.870;2022-12-07T16:16:53;11.60;77.40
41953;DHT22;63613;28.200;112.870;2022-12-07T16:19:20;11.60;77.30
41953;DHT22;63613;28.200;112.870;2022-12-07T16:21:47;11.60;77.40
41953;DHT22;63613;28.200;112.870;2022-12-07T16:24:14;11.60;77.30
41953;DHT22;63613;28.200;112.870;2022-12-07T16:26:43;11.60;77.30
41953;DHT22;63613;28.200;112.870;2022-12-07T16:29:14;11.60;77.30
41953;DHT22;63613;28.200;112.870;2022-12-07T16:31:42;11.60;77.40
41953;DHT22;63613;28.200;112.870;2022-12-07T16:34:09;11.60;77.40
41953;DHT22;63613;28.200;112.870;2022-12-07T16:36:36;11.60;77.50
41953;DHT22;63613;28.200;112.870;2022-12-07T16:39:23;11.60;77.50
41953;DHT22;63613;28.200;112.870;2022-12-07T16:41:52;11.60;77.40
41953;DHT22;63613;28.200;112.870;2022-12-07T16:44:23;11.60;77.50
41953;DHT22;63613;28.200;112.870;2022-12-07T16:46:50;11.70;77.60
41953;DHT22;63613;28.200;112.870;2022-12-07T16:49:17;11.60;77.60
41953;DHT22;63613;28.200;112.870;2022-12-07T16:51:45;11.60;77.60
41953;DHT22;63613;28.200;112.870;2022-12-07T16:54:15;11.60;77.70
41953;DHT22;63613;28.200;112.870;2022-12-07T16:56:44;11.60;77.60
41953;DHT22;63613;28.200;112.870;2022-12-07T16:59:11;11.60;77.10
41953;DHT22;63613;28.200;112.870;2022-12-07T17:01:38;11.60;76.80
41953;DHT22;63613;28.200;112.870;2022-12-07T17:04:05;11.60;76.80
41953;DHT22;63613;28.200;112.870;2022-12-07T17:06:33;11.60;76.90
41953;DHT22;63613;28.200;112.870;2022-12-07T17:09:00;11.60;76.90
41953;DHT22;63613;28.200;112.870;2022-12-07T17:11:29;11.60;77.00
41953;DHT22;63613;28.200;112.870;2022-12-07T17:13:59;11.60;77.00
41953;DHT22;63613;28.200;112.870;2022-12-07T17:16:44;11.60;77.00
41953;DHT22;63613;28.200;112.870;2022-12-07T17:19:15;11.60;77.10
41953;DHT22;63613;28.200;112.870;2022-12-07T17:21:43;11.70;79.80
41953;DHT22;63613;28.200;112.870;2022-12-07T17:24:12;11.90;80.90
41953;DHT22;63613;28.200;112.870;2022-12-07T17:26:41;11.90;80.50
41953;DHT22;63613;28.200;112.870;2022-12-07T17:29:13;11.90;79.90
41953;DHT22;63613;28.200;112.870;2022-12-07T17:31:41;11.90;79.30
41953;DHT22;63613;28.200;112.870;2022-12-07T17:34:14;11.80;79.00
41953;DHT22;63613;28.200;112.870;2022-12-07T17:36:42;11.80;78.90
41953;DHT22;63613;28.200;112.870;2022-12-07T17:39:13;11.80;78.70
41953;DHT22;63613;28.200;112.870;2022-12-07T17:41:41;11.80;78.70